createdAt,value
2018-08-09T00:02:16.081Z,22.90
2018-08-09T00:04:43.653Z,17.48
2018-08-09T00:07:11.238Z,18.42
2018-08-09T00:09:38.816Z,18.55
2018-08-09T00:12:30.345Z,17.10
2018-08-09T00:14:57.946Z,18.67
2018-08-09T00:17:25.516Z,17.98
2018-08-09T00:19:53.082Z,18.25
2018-08-09T00:22:20.653Z,18.75
2018-08-09T00:24:48.240Z,19.73
2018-08-09T00:27:15.798Z,17.95
2018-08-09T00:29:43.364Z,18.07
2018-08-09T00:32:10.926Z,20.95
2018-08-09T00:34:38.493Z,18.90
2018-08-09T00:37:06.101Z,16.87
2018-08-09T00:39:33.653Z,17.82
2018-08-09T00:42:01.227Z,17.82
2018-08-09T00:44:28.786Z,18.70
2018-08-09T00:46:56.366Z,18.60
2018-08-09T00:49:23.926Z,18.00
2018-08-09T00:51:51.506Z,18.62
2018-08-09T00:54:19.030Z,17.12
2018-08-09T00:56:46.544Z,21.23
2018-08-09T00:59:14.083Z,19.50
2018-08-09T01:01:41.606Z,20.05
2018-08-09T01:04:09.136Z,22.25
2018-08-09T01:06:36.669Z,20.10
2018-08-09T01:09:07.829Z,20.05
2018-08-09T01:11:36.310Z,17.90
2018-08-09T01:14:04.081Z,18.15
2018-08-09T01:16:31.605Z,16.80
2018-08-09T01:19:06.065Z,18.67
2018-08-09T01:21:33.584Z,18.25
2018-08-09T01:24:01.165Z,17.98
2018-08-09T01:26:28.674Z,20.70
2018-08-09T01:28:56.219Z,18.30
2018-08-09T01:31:30.817Z,17.25
2018-08-09T01:33:58.362Z,18.35
2018-08-09T01:36:25.873Z,19.73
2018-08-09T01:38:53.601Z,19.48
2018-08-09T01:41:21.137Z,21.37
2018-08-09T01:43:57.650Z,20.32
2018-08-09T01:46:25.689Z,19.48
2018-08-09T01:48:53.868Z,21.20
2018-08-09T01:51:21.393Z,21.35
2018-08-09T01:53:49.510Z,20.25
2018-08-09T01:56:17.030Z,21.12
2018-08-09T02:01:54.495Z,20.32
2018-08-09T02:04:22.028Z,19.52
2018-08-09T02:06:49.587Z,21.57
2018-08-09T02:09:23.003Z,19.67
2018-08-09T02:11:50.534Z,22.02
2018-08-09T02:14:18.075Z,19.57
2018-08-09T02:16:45.594Z,19.87
2018-08-09T02:19:13.119Z,19.60
2018-08-09T02:21:40.627Z,19.60
2018-08-09T02:24:08.176Z,20.52
2018-08-09T02:26:35.722Z,18.73
2018-08-09T02:29:03.274Z,21.87
2018-08-09T02:31:30.803Z,18.40
2018-08-09T02:33:58.332Z,20.02
2018-08-09T02:36:25.876Z,19.92
2018-08-09T02:38:53.410Z,19.98
2018-08-09T02:41:20.950Z,20.50
2018-08-09T02:43:48.490Z,20.55
2018-08-09T02:46:16.046Z,23.32
2018-08-09T02:48:43.613Z,19.98
2018-08-09T02:51:11.158Z,20.65
2018-08-09T02:53:38.674Z,19.60
2018-08-09T02:56:06.187Z,20.30
2018-08-09T02:58:33.678Z,21.23
2018-08-09T03:01:01.185Z,21.23
2018-08-09T03:03:28.703Z,20.95
2018-08-09T03:05:56.223Z,19.23
2018-08-09T03:08:23.719Z,20.88
2018-08-09T03:10:51.230Z,24.23
2018-08-09T03:13:18.726Z,22.27
2018-08-09T03:15:46.240Z,22.67
2018-08-09T03:18:13.743Z,19.77
2018-08-09T03:20:41.239Z,20.68
2018-08-09T03:23:08.754Z,21.70
2018-08-09T03:25:36.258Z,21.70
2018-08-09T03:28:03.755Z,20.08
2018-08-09T03:30:31.264Z,20.97
2018-08-09T03:32:58.780Z,25.37
2018-08-09T03:35:26.300Z,25.65
2018-08-09T03:37:53.840Z,22.87
2018-08-09T03:40:21.331Z,21.75
2018-08-09T03:42:48.839Z,19.65
2018-08-09T03:45:16.340Z,20.90
2018-08-09T03:47:43.843Z,22.52
2018-08-09T03:50:11.351Z,20.97
2018-08-09T03:52:38.854Z,25.32
2018-08-09T03:55:06.361Z,22.95
2018-08-09T03:57:33.871Z,21.90
2018-08-09T04:00:01.371Z,22.65
2018-08-09T04:02:28.882Z,26.33
2018-08-09T04:04:56.382Z,22.67
2018-08-09T04:07:23.917Z,23.87
2018-08-09T04:09:51.410Z,23.87
2018-08-09T04:12:19.208Z,21.77
2018-08-09T04:14:46.722Z,20.37
2018-08-09T04:17:21.735Z,20.75
2018-08-09T04:19:50.571Z,21.42
2018-08-09T04:22:18.755Z,23.55
2018-08-09T04:24:46.826Z,21.07
2018-08-09T04:27:14.344Z,21.87
2018-08-09T04:29:41.867Z,22.82
2018-08-09T04:32:09.422Z,24.52
2018-08-09T04:34:36.918Z,20.57
2018-08-09T04:37:04.822Z,23.83
2018-08-09T04:39:32.318Z,20.70
2018-08-09T04:41:59.827Z,21.25
2018-08-09T04:44:27.508Z,25.55
2018-08-09T04:46:55.048Z,21.97
2018-08-09T04:49:22.555Z,18.20
2018-08-09T04:51:50.043Z,20.10
2018-08-09T04:54:17.578Z,19.35
2018-08-09T04:56:45.103Z,21.07
2018-08-09T04:59:12.622Z,18.40
2018-08-09T05:01:40.147Z,19.07
2018-08-09T05:04:07.689Z,18.40
2018-08-09T05:06:35.219Z,18.77
2018-08-09T05:09:04.911Z,17.37
2018-08-09T05:11:32.444Z,17.15
2018-08-09T05:13:59.962Z,17.00
2018-08-09T05:16:27.495Z,17.17
2018-08-09T05:18:55.033Z,16.97
2018-08-09T05:21:22.554Z,17.20
2018-08-09T05:23:50.075Z,15.45
2018-08-09T05:26:29.323Z,15.85
2018-08-09T05:28:56.943Z,14.38
2018-08-09T05:31:24.476Z,15.40
2018-08-09T05:33:52.034Z,13.40
2018-08-09T05:36:19.562Z,15.90
2018-08-09T05:38:47.136Z,13.00
2018-08-09T05:41:14.698Z,12.53
2018-08-09T05:43:42.250Z,13.70
2018-08-09T05:46:09.808Z,13.20
2018-08-09T05:48:37.348Z,13.48
2018-08-09T05:51:05.055Z,14.47
2018-08-09T05:53:32.636Z,16.75
2018-08-09T05:56:00.178Z,15.53
2018-08-09T05:58:27.716Z,14.33
2018-08-09T06:00:55.255Z,13.40
2018-08-09T06:03:22.838Z,13.70
2018-08-09T06:05:50.414Z,15.30
2018-08-09T06:08:17.916Z,16.23
2018-08-09T06:10:45.438Z,14.90
2018-08-09T06:13:13.089Z,14.55
2018-08-09T06:15:40.751Z,16.30
2018-08-09T06:18:08.288Z,14.78
2018-08-09T06:20:35.851Z,15.68
2018-08-09T06:23:03.387Z,17.87
2018-08-09T06:25:30.914Z,13.72
2018-08-09T06:27:58.446Z,15.00
2018-08-09T06:30:25.996Z,17.15
2018-08-09T06:32:53.511Z,13.80
2018-08-09T06:35:21.046Z,14.10
2018-08-09T06:37:48.588Z,14.90
2018-08-09T06:40:16.122Z,15.50
2018-08-09T06:42:44.207Z,14.58
2018-08-09T06:45:11.886Z,17.92
2018-08-09T06:47:39.476Z,15.43
2018-08-09T06:50:08.136Z,16.75
2018-08-09T06:52:35.878Z,15.30
2018-08-09T06:55:03.804Z,16.10
2018-08-09T06:57:31.322Z,14.23
2018-08-09T06:59:58.869Z,14.65
2018-08-09T07:02:26.415Z,14.43
2018-08-09T07:04:53.959Z,16.00
2018-08-09T07:07:21.559Z,15.90
2018-08-09T07:09:49.095Z,16.50
2018-08-09T07:12:16.622Z,15.85
2018-08-09T07:14:44.154Z,20.77
2018-08-09T07:17:11.686Z,18.75
2018-08-09T07:19:39.210Z,16.25
2018-08-09T07:22:06.769Z,18.67
2018-08-09T07:24:34.322Z,15.35
2018-08-09T07:27:01.893Z,19.30
2018-08-09T07:29:29.430Z,15.40
2018-08-09T07:31:56.971Z,15.85
2018-08-09T07:34:24.505Z,14.30
2018-08-09T07:36:52.035Z,14.38
2018-08-09T07:39:19.593Z,15.18
2018-08-09T07:41:47.123Z,14.13
2018-08-09T07:44:14.642Z,14.50
2018-08-09T07:46:42.170Z,14.80
2018-08-09T07:49:09.686Z,19.95
2018-08-09T07:51:37.219Z,15.93
2018-08-09T07:54:04.757Z,14.98
2018-08-09T07:56:32.292Z,15.23
2018-08-09T07:58:59.814Z,14.38
2018-08-09T08:01:27.352Z,13.78
2018-08-09T08:03:54.863Z,15.75
2018-08-09T08:06:22.402Z,13.53
2018-08-09T08:08:49.927Z,12.93
2018-08-09T08:11:17.480Z,14.85
2018-08-09T08:13:44.999Z,13.53
2018-08-09T08:16:12.535Z,13.68
2018-08-09T08:18:40.077Z,13.45
2018-08-09T08:21:07.613Z,14.45
2018-08-09T08:23:35.126Z,13.28
2018-08-09T08:26:02.666Z,13.05
2018-08-09T08:28:30.195Z,12.70
2018-08-09T08:30:57.715Z,13.50
2018-08-09T08:33:25.248Z,11.90
2018-08-09T08:35:52.758Z,11.15
2018-08-09T08:38:20.338Z,13.75
2018-08-09T08:40:47.854Z,11.03
2018-08-09T08:43:15.403Z,10.38
2018-08-09T08:45:42.931Z,10.38
2018-08-09T08:48:10.468Z,12.73
2018-08-09T08:50:38.000Z,11.90
2018-08-09T08:53:05.590Z,9.63
2018-08-09T08:55:33.104Z,10.53
2018-08-09T08:58:00.642Z,13.60
2018-08-09T09:00:28.190Z,11.43
2018-08-09T09:02:55.751Z,9.23
2018-08-09T09:05:23.287Z,13.28
2018-08-09T09:07:50.837Z,13.10
2018-08-09T09:10:18.360Z,9.40
2018-08-09T09:12:45.915Z,9.83
2018-08-09T09:15:14.574Z,11.20
2018-08-09T09:17:42.865Z,13.80
2018-08-09T09:20:15.633Z,11.78
2018-08-09T09:22:43.603Z,12.73
2018-08-09T09:25:11.471Z,10.70
2018-08-09T09:27:39.015Z,12.95
2018-08-09T09:30:10.167Z,10.08
2018-08-09T09:32:37.692Z,13.53
2018-08-09T09:35:05.617Z,10.10
2018-08-09T09:37:33.187Z,10.05
2018-08-09T09:40:00.809Z,9.60
2018-08-09T09:42:28.330Z,10.03
2018-08-09T09:44:55.866Z,9.18
2018-08-09T09:47:23.402Z,9.88
2018-08-09T09:49:50.983Z,11.30
2018-08-09T09:52:18.502Z,9.10
2018-08-09T09:54:46.039Z,12.80
2018-08-09T09:57:13.545Z,11.55
2018-08-09T09:59:41.057Z,8.43
2018-08-09T10:02:08.576Z,10.03
2018-08-09T10:04:36.090Z,8.20
2018-08-09T10:07:03.662Z,10.82
2018-08-09T10:09:31.144Z,8.63
2018-08-09T10:11:58.634Z,8.30
2018-08-09T10:14:26.146Z,9.68
2018-08-09T10:16:53.642Z,7.08
2018-08-09T10:19:21.154Z,11.03
2018-08-09T10:21:48.646Z,13.98
2018-08-09T10:24:16.147Z,9.70
2018-08-09T10:26:43.642Z,9.08
2018-08-09T10:29:11.171Z,7.50
2018-08-09T10:31:38.743Z,12.80
2018-08-09T10:34:06.281Z,10.53
2018-08-09T10:36:33.867Z,8.00
2018-08-09T10:39:01.378Z,8.73
2018-08-09T10:41:28.874Z,7.28
2018-08-09T10:43:56.366Z,8.18
2018-08-09T10:46:23.891Z,8.43
2018-08-09T10:48:51.458Z,8.73
2018-08-09T10:51:18.988Z,9.88
2018-08-09T10:53:46.523Z,7.55
2018-08-09T10:56:14.071Z,7.33
2018-08-09T10:58:41.654Z,9.28
2018-08-09T11:01:09.199Z,8.15
2018-08-09T11:03:36.722Z,8.40
2018-08-09T11:06:04.262Z,7.58
2018-08-09T11:08:31.781Z,6.92
2018-08-09T11:11:03.964Z,10.05
2018-08-09T11:13:31.493Z,6.10
2018-08-09T11:15:59.029Z,8.73
2018-08-09T11:18:26.550Z,9.90
2018-08-09T11:20:54.092Z,6.62
2018-08-09T11:23:21.619Z,6.83
2018-08-09T11:25:49.165Z,8.45
2018-08-09T11:28:16.678Z,9.23
2018-08-09T11:30:44.207Z,9.45
2018-08-09T11:33:11.729Z,7.97
2018-08-09T11:35:39.263Z,7.67
2018-08-09T11:38:06.779Z,7.85
2018-08-09T11:40:34.306Z,8.05
2018-08-09T11:43:01.848Z,9.13
2018-08-09T11:45:29.388Z,9.00
2018-08-09T11:47:56.914Z,7.08
2018-08-09T11:50:24.434Z,7.67
2018-08-09T11:52:51.964Z,6.87
2018-08-09T11:55:19.482Z,10.23
2018-08-09T11:57:46.978Z,7.42
2018-08-09T12:00:14.501Z,5.78
2018-08-09T12:02:41.994Z,8.53
2018-08-09T12:05:09.520Z,6.17
2018-08-09T12:07:37.036Z,7.50
2018-08-09T12:10:04.614Z,7.35
2018-08-09T12:12:32.131Z,7.35
2018-08-09T12:14:59.688Z,7.30
2018-08-09T12:17:27.219Z,7.10
2018-08-09T12:19:54.751Z,6.70
2018-08-09T12:22:22.258Z,10.08
2018-08-09T12:24:49.771Z,7.03
2018-08-09T12:27:17.312Z,8.43
2018-08-09T12:29:44.814Z,6.72
2018-08-09T12:32:12.323Z,8.03
2018-08-09T12:34:39.868Z,7.00
2018-08-09T12:37:07.424Z,7.00
2018-08-09T12:39:34.941Z,7.37
2018-08-09T12:42:02.488Z,6.80
2018-08-09T12:44:30.072Z,7.30
2018-08-09T12:46:57.610Z,8.20
2018-08-09T12:49:25.346Z,8.05
2018-08-09T12:51:52.901Z,6.95
2018-08-09T12:54:20.449Z,7.08
2018-08-09T12:56:47.978Z,7.47
2018-08-09T12:59:15.489Z,7.92
2018-08-09T13:01:43.000Z,6.87
2018-08-09T13:04:10.535Z,7.22
2018-08-09T13:06:38.034Z,7.83
2018-08-09T13:09:08.654Z,6.78
2018-08-09T13:11:36.175Z,7.67
2018-08-09T13:14:04.436Z,7.80
2018-08-09T13:16:31.953Z,7.30
2018-08-09T13:18:59.467Z,7.20
2018-08-09T13:21:26.993Z,7.60
2018-08-09T13:23:54.516Z,7.95
2018-08-09T13:26:22.024Z,8.13
2018-08-09T13:28:49.556Z,8.18
2018-08-09T13:31:17.087Z,8.43
2018-08-09T13:33:44.648Z,8.63
2018-08-09T13:36:12.150Z,8.58
2018-08-09T13:38:39.655Z,8.28
2018-08-09T13:41:07.163Z,8.35
2018-08-09T13:43:34.676Z,8.98
2018-08-09T13:46:02.204Z,8.45
2018-08-09T13:48:29.746Z,8.53
2018-08-09T13:50:57.275Z,8.78
2018-08-09T13:53:24.793Z,8.78
2018-08-09T13:55:52.424Z,8.98
2018-08-09T13:58:19.996Z,8.18
2018-08-09T14:00:47.546Z,8.40
2018-08-09T14:03:15.096Z,8.60
2018-08-09T14:05:42.647Z,9.53
2018-08-09T14:08:10.224Z,10.00
2018-08-09T14:10:37.751Z,7.62
2018-08-09T14:13:08.747Z,8.03
2018-08-09T14:15:36.291Z,7.90
2018-08-09T14:18:03.851Z,8.15
2018-08-09T14:20:31.379Z,8.00
2018-08-09T14:22:58.921Z,8.13
2018-08-09T14:25:28.503Z,8.00
2018-08-09T14:27:56.059Z,7.67
2018-08-09T14:30:40.766Z,8.13
2018-08-09T14:33:08.320Z,8.50
2018-08-09T14:35:35.834Z,7.55
2018-08-09T14:38:03.385Z,7.70
2018-08-09T14:41:01.111Z,7.42
2018-08-09T14:43:28.677Z,7.28
2018-08-09T14:45:56.238Z,7.00
2018-08-09T14:48:28.787Z,7.37
2018-08-09T14:50:56.337Z,7.42
2018-08-09T14:53:29.035Z,7.78
2018-08-09T14:55:56.587Z,8.13
2018-08-09T14:58:24.180Z,7.67
2018-08-09T15:00:51.719Z,7.15
2018-08-09T15:03:19.275Z,7.70
2018-08-09T15:08:54.129Z,7.08
2018-08-09T15:11:21.688Z,7.53
2018-08-09T15:16:53.451Z,7.90
2018-08-09T15:19:21.001Z,7.67
2018-08-09T15:21:48.542Z,7.35
2018-08-09T15:27:32.289Z,8.18
2018-08-09T15:29:59.827Z,10.35
2018-08-09T15:32:27.367Z,7.78
2018-08-09T15:34:54.910Z,8.10
2018-08-09T15:37:22.455Z,7.42
2018-08-09T15:40:05.350Z,7.62
2018-08-09T15:42:32.896Z,7.97
2018-08-09T15:45:00.423Z,8.28
2018-08-09T15:47:28.034Z,7.95
2018-08-09T15:49:55.514Z,7.55
2018-08-09T15:52:23.044Z,7.55
2018-08-09T15:54:50.570Z,7.92
2018-08-09T15:57:18.140Z,7.67
2018-08-09T15:59:45.631Z,7.28
2018-08-09T16:02:13.162Z,8.00
2018-08-09T16:04:40.701Z,7.80
2018-08-09T16:07:08.213Z,7.53
2018-08-09T16:09:35.710Z,7.72
2018-08-09T16:12:03.264Z,7.75
2018-08-09T16:14:30.775Z,7.72
2018-08-09T16:16:58.303Z,7.78
2018-08-09T16:19:25.811Z,7.50
2018-08-09T16:21:53.333Z,7.75
2018-08-09T16:24:20.862Z,7.62
2018-08-09T16:26:48.393Z,7.87
2018-08-09T16:29:15.917Z,8.10
2018-08-09T16:31:43.429Z,8.13
2018-08-09T16:34:10.942Z,8.00
2018-08-09T16:36:38.469Z,7.33
2018-08-09T16:39:10.298Z,8.08
2018-08-09T16:41:37.815Z,8.95
2018-08-09T16:44:05.367Z,7.60
2018-08-09T16:46:32.878Z,8.18
2018-08-09T16:49:00.409Z,8.20
2018-08-09T16:51:27.937Z,8.93
2018-08-09T16:53:55.547Z,7.92
2018-08-09T16:56:23.111Z,7.75
2018-08-09T16:58:50.672Z,8.20
2018-08-09T17:01:18.202Z,8.88
2018-08-09T17:03:45.742Z,7.62
2018-08-09T17:06:13.282Z,8.10
2018-08-09T17:08:40.831Z,8.85
2018-08-09T17:11:08.359Z,12.73
2018-08-09T17:13:35.911Z,8.63
2018-08-09T17:16:03.500Z,9.45
2018-08-09T17:18:31.095Z,7.87
2018-08-09T17:20:58.660Z,8.38
2018-08-09T17:23:26.234Z,8.25
2018-08-09T17:25:53.785Z,10.13
2018-08-09T17:28:21.330Z,7.90
2018-08-09T17:30:48.904Z,9.00
2018-08-09T17:33:16.442Z,8.28
2018-08-09T17:35:43.980Z,8.63
2018-08-09T17:38:11.519Z,7.70
2018-08-09T17:40:39.060Z,8.08
2018-08-09T17:43:06.592Z,9.05
2018-08-09T17:45:34.904Z,8.88
2018-08-09T17:48:02.989Z,8.83
2018-08-09T17:50:30.555Z,8.28
2018-08-09T17:53:00.064Z,8.50
2018-08-09T17:55:27.618Z,7.58
2018-08-09T17:57:55.135Z,7.95
2018-08-09T18:00:24.767Z,7.97
2018-08-09T18:02:52.640Z,8.58
2018-08-09T18:05:20.175Z,8.15
2018-08-09T18:07:47.763Z,8.53
2018-08-09T18:10:18.133Z,8.40
2018-08-09T18:12:46.242Z,8.10
2018-08-09T18:15:13.874Z,8.48
2018-08-09T18:17:41.429Z,7.58
2018-08-09T18:20:12.859Z,8.60
2018-08-09T18:22:40.783Z,8.85
2018-08-09T18:25:09.696Z,8.00
2018-08-09T18:27:37.319Z,8.48
2018-08-09T18:30:08.659Z,8.58
2018-08-09T18:32:36.396Z,8.05
2018-08-09T18:35:04.843Z,8.23
2018-08-09T18:37:32.361Z,14.15
2018-08-09T18:39:59.898Z,8.00
2018-08-09T18:42:27.417Z,10.80
2018-08-09T18:44:54.939Z,8.60
2018-08-09T18:47:22.462Z,10.53
2018-08-09T18:49:49.971Z,10.20
2018-08-09T18:52:17.471Z,9.78
2018-08-09T18:54:45.017Z,8.80
2018-08-09T18:57:12.543Z,9.20
2018-08-09T18:59:40.087Z,9.03
2018-08-09T19:02:07.631Z,12.07
2018-08-09T19:04:35.183Z,11.20
2018-08-09T19:07:02.712Z,8.98
2018-08-09T19:09:30.247Z,10.88
2018-08-09T19:12:00.075Z,9.55
2018-08-09T19:14:28.623Z,9.08
2018-08-09T19:16:56.319Z,10.15
2018-08-09T19:19:23.851Z,9.78
2018-08-09T19:21:51.411Z,10.70
2018-08-09T19:24:18.979Z,10.25
2018-08-09T19:26:46.606Z,10.63
2018-08-09T19:29:14.371Z,10.00
2018-08-09T19:31:42.256Z,10.40
2018-08-09T19:34:10.082Z,11.80
2018-08-09T19:36:37.956Z,11.05
2018-08-09T19:39:10.718Z,10.88
2018-08-09T19:41:38.889Z,10.45
2018-08-09T19:44:06.811Z,10.75
2018-08-09T19:46:35.042Z,12.82
2018-08-09T19:49:02.966Z,10.15
2018-08-09T19:51:30.840Z,11.90
2018-08-09T19:53:58.937Z,15.53
2018-08-09T19:56:27.255Z,10.95
2018-08-09T19:58:55.089Z,8.53
2018-08-09T20:01:23.138Z,13.75
2018-08-09T20:03:51.049Z,10.58
2018-08-09T20:06:18.869Z,11.33
2018-08-09T20:08:46.714Z,10.40
2018-08-09T20:11:14.477Z,13.53
2018-08-09T20:13:42.328Z,7.47
2018-08-09T20:16:10.207Z,11.55
2018-08-09T20:18:38.100Z,8.80
2018-08-09T20:21:06.332Z,7.95
2018-08-09T20:23:34.270Z,8.43
2018-08-09T20:26:02.272Z,10.58
2018-08-09T20:28:30.135Z,9.65
2018-08-09T20:30:57.989Z,8.55
2018-08-09T20:33:25.776Z,7.72
2018-08-09T20:35:53.626Z,10.15
2018-08-09T20:38:21.459Z,7.08
2018-08-09T20:40:49.336Z,8.18
2018-08-09T20:43:17.244Z,9.98
2018-08-09T20:45:45.181Z,9.10
2018-08-09T20:48:13.020Z,7.60
2018-08-09T20:50:40.894Z,13.65
2018-08-09T20:53:08.748Z,7.50
2018-08-09T20:55:36.531Z,8.18
2018-08-09T20:58:04.619Z,9.20
2018-08-09T21:00:33.615Z,7.72
2018-08-09T21:03:01.918Z,5.37
2018-08-09T21:05:34.338Z,8.60
2018-08-09T21:08:02.148Z,7.42
2018-08-09T21:10:30.355Z,7.12
2018-08-09T21:12:58.455Z,6.70
2018-08-09T21:15:26.420Z,7.30
2018-08-09T21:17:54.248Z,7.90
2018-08-09T21:20:22.112Z,6.83
2018-08-09T21:22:50.433Z,11.18
2018-08-09T21:25:18.506Z,6.00
2018-08-09T21:27:46.819Z,9.35
2018-08-09T21:30:18.723Z,10.98
2018-08-09T21:32:47.033Z,8.00
2018-08-09T21:35:14.913Z,7.62
2018-08-09T21:37:43.209Z,8.48
2018-08-09T21:40:11.944Z,9.60
2018-08-09T21:42:39.757Z,13.10
2018-08-09T21:45:10.636Z,10.43
2018-08-09T21:47:38.479Z,10.10
2018-08-09T21:50:09.420Z,9.55
2018-08-09T21:52:37.473Z,8.90
2018-08-09T21:55:06.070Z,11.03
2018-08-09T21:57:34.235Z,9.58
2018-08-09T22:03:09.640Z,10.32
2018-08-09T22:05:43.129Z,13.50
2018-08-09T22:08:16.665Z,11.10
2018-08-09T22:10:50.248Z,9.95
2018-08-09T22:14:21.657Z,7.60
2018-08-09T22:20:14.409Z,8.00
2018-08-09T22:22:42.392Z,7.90
2018-08-09T22:25:10.304Z,13.43
2018-08-09T22:27:38.171Z,16.05
2018-08-09T22:30:08.275Z,10.65
2018-08-09T22:32:36.253Z,8.30
2018-08-09T22:35:05.124Z,9.68
2018-08-09T22:37:32.984Z,13.93
2018-08-09T22:40:00.847Z,7.80
2018-08-09T22:42:28.667Z,9.40
2018-08-09T22:44:56.520Z,15.48
2018-08-09T22:47:24.384Z,9.35
2018-08-09T22:50:24.035Z,10.00
2018-08-09T22:52:51.954Z,10.15
2018-08-09T22:55:19.872Z,11.45
2018-08-09T22:57:47.815Z,10.48
2018-08-09T23:00:21.451Z,11.05
2018-08-09T23:02:49.387Z,11.88
2018-08-09T23:05:17.330Z,9.08
2018-08-09T23:07:45.188Z,5.83
2018-08-09T23:10:13.118Z,9.58
2018-08-09T23:12:41.260Z,9.83
2018-08-09T23:15:09.540Z,10.25
2018-08-09T23:17:37.349Z,8.33
2018-08-09T23:20:06.332Z,12.90
2018-08-09T23:22:34.224Z,6.00
2018-08-09T23:25:02.161Z,9.10
2018-08-09T23:27:30.031Z,10.25
2018-08-09T23:29:57.853Z,8.88
2018-08-09T23:32:25.747Z,10.18
2018-08-09T23:34:53.645Z,7.60
2018-08-09T23:37:21.468Z,7.10
2018-08-09T23:39:49.344Z,11.68
2018-08-09T23:42:17.255Z,9.33
2018-08-09T23:44:45.111Z,4.33
2018-08-09T23:47:12.990Z,7.28
2018-08-09T23:49:40.836Z,8.60
2018-08-09T23:52:08.733Z,9.13
2018-08-09T23:55:12.271Z,8.98
2018-08-09T23:57:40.205Z,9.00
